sensor_id;sensor_type;location;lat;lon;timestamp;pressure;altitude;pressure_sealevel;temperature;humidity
8039;BME280;4062;49.844;8.120;2023-05-14T00:01:11;99439.00;;;15.42;59.43
8039;BME280;4062;49.844;8.120;2023-05-14T00:03:15;99435.47;;;15.41;59.40
8039;BME280;4062;49.844;8.120;2023-05-14T00:05:25;99441.66;;;15.42;59.44
8039;BME280;4062;49.844;8.120;2023-05-14T00:07:32;99434.59;;;15.41;59.57
8039;BME280;4062;49.844;8.120;2023-05-14T00:09:34;99439.94;;;15.41;59.46
8039;BME280;4062;49.844;8.120;2023-05-14T00:11:37;99435.47;;;15.41;59.49
8039;BME280;4062;49.844;8.120;2023-05-14T00:13:38;99444.31;;;15.42;59.44
8039;BME280;4062;49.844;8.120;2023-05-14T00:15:40;99436.34;;;15.42;59.52
8039;BME280;4062;49.844;8.120;2023-05-14T00:17:47;99439.84;;;15.42;59.43
8039;BME280;4062;49.844;8.120;2023-05-14T00:19:48;99444.31;;;15.42;59.40
8039;BME280;4062;49.844;8.120;2023-05-14T00:21:50;99441.66;;;15.42;59.23
8039;BME280;4062;49.844;8.120;2023-05-14T00:23:53;99445.19;;;15.42;59.46
8039;BME280;4062;49.844;8.120;2023-05-14T00:25:55;99432.78;;;15.41;59.47
8039;BME280;4062;49.844;8.120;2023-05-14T00:27:56;99439.00;;;15.42;59.33
8039;BME280;4062;49.844;8.120;2023-05-14T00:30:23;99433.69;;;15.42;59.58
8039;BME280;4062;49.844;8.120;2023-05-14T00:32:30;99430.13;;;15.41;59.37
8039;BME280;4062;49.844;8.120;2023-05-14T00:34:35;99427.47;;;15.41;59.42
8039;BME280;4062;49.844;8.120;2023-05-14T00:36:37;99423.94;;;15.41;59.58
8039;BME280;4062;49.844;8.120;2023-05-14T00:38:38;99421.28;;;15.41;59.57
8039;BME280;4062;49.844;8.120;2023-05-14T00:40:49;99423.03;;;15.42;59.50
8039;BME280;4062;49.844;8.120;2023-05-14T00:42:54;99415.97;;;15.41;59.39
8039;BME280;4062;49.844;8.120;2023-05-14T00:44:58;99413.31;;;15.41;59.53
8039;BME280;4062;49.844;8.120;2023-05-14T00:47:04;99415.03;;;15.42;59.58
8039;BME280;4062;49.844;8.120;2023-05-14T00:49:06;99420.38;;;15.42;59.49
8039;BME280;4062;49.844;8.120;2023-05-14T00:51:13;99415.97;;;15.41;59.45
8039;BME280;4062;49.844;8.120;2023-05-14T00:53:17;99414.16;;;15.41;59.43
8039;BME280;4062;49.844;8.120;2023-05-14T00:55:19;99416.81;;;15.41;59.42
8039;BME280;4062;49.844;8.120;2023-05-14T00:57:30;99416.81;;;15.41;59.47
8039;BME280;4062;49.844;8.120;2023-05-14T00:59:35;99418.63;;;15.41;59.43
8039;BME280;4062;49.844;8.120;2023-05-14T01:01:37;99419.47;;;15.41;59.55
8039;BME280;4062;49.844;8.120;2023-05-14T01:03:38;99417.69;;;15.42;59.42
8039;BME280;4062;49.844;8.120;2023-05-14T01:06:06;99415.97;;;15.41;59.51
8039;BME280;4062;49.844;8.120;2023-05-14T01:11:21;99414.16;;;15.41;59.56
8039;BME280;4062;49.844;8.120;2023-05-14T01:13:26;99414.16;;;15.41;59.51
8039;BME280;4062;49.844;8.120;2023-05-14T01:15:33;99415.03;;;15.42;59.43
8039;BME280;4062;49.844;8.120;2023-05-14T01:17:45;99408.84;;;15.41;59.43
8039;BME280;4062;49.844;8.120;2023-05-14T01:19:47;99412.38;;;15.42;59.56
8039;BME280;4062;49.844;8.120;2023-05-14T01:21:55;99411.50;;;15.41;59.37
8039;BME280;4062;49.844;8.120;2023-05-14T01:23:56;99400.84;;;15.41;59.55
8039;BME280;4062;49.844;8.120;2023-05-14T01:26:00;99394.66;;;15.41;59.45
8039;BME280;4062;49.844;8.120;2023-05-14T01:30:35;99399.06;;;15.42;59.43
8039;BME280;4062;49.844;8.120;2023-05-14T01:32:38;99406.16;;;15.41;59.37
8039;BME280;4062;49.844;8.120;2023-05-14T01:34:40;99402.56;;;15.42;59.51
8039;BME280;4062;49.844;8.120;2023-05-14T01:36:44;99409.72;;;15.42;59.40
8039;BME280;4062;49.844;8.120;2023-05-14T01:38:56;99401.72;;;15.42;59.42
8039;BME280;4062;49.844;8.120;2023-05-14T01:41:09;99398.19;;;15.41;59.49
8039;BME280;4062;49.844;8.120;2023-05-14T01:43:11;99400.84;;;15.41;59.44
8039;BME280;4062;49.844;8.120;2023-05-14T01:45:12;99400.84;;;15.41;59.50
8039;BME280;4062;49.844;8.120;2023-05-14T01:47:25;99406.16;;;15.41;59.45
8039;BME280;4062;49.844;8.120;2023-05-14T01:49:27;99411.50;;;15.41;59.45
8039;BME280;4062;49.844;8.120;2023-05-14T01:51:35;99397.34;;;15.41;59.43
8039;BME280;4062;49.844;8.120;2023-05-14T01:53:37;99400.84;;;15.41;59.49
8039;BME280;4062;49.844;8.120;2023-05-14T01:55:40;99396.47;;;15.40;59.58
8039;BME280;4062;49.844;8.120;2023-05-14T01:57:54;99394.66;;;15.41;59.33
8039;BME280;4062;49.844;8.120;2023-05-14T01:59:59;99394.66;;;15.41;59.57
8039;BME280;4062;49.844;8.120;2023-05-14T02:02:06;99394.66;;;15.41;59.47
8039;BME280;4062;49.844;8.120;2023-05-14T02:04:07;99394.66;;;15.41;59.44
8039;BME280;4062;49.844;8.120;2023-05-14T02:06:08;99393.75;;;15.42;59.38
8039;BME280;4062;49.844;8.120;2023-05-14T02:08:13;99388.50;;;15.40;59.52
8039;BME280;4062;49.844;8.120;2023-05-14T02:10:14;99390.19;;;15.41;59.51
8039;BME280;4062;49.844;8.120;2023-05-14T02:12:16;99390.19;;;15.41;59.52
8039;BME280;4062;49.844;8.120;2023-05-14T02:14:23;99386.69;;;15.41;59.44
8039;BME280;4062;49.844;8.120;2023-05-14T02:16:24;99392.00;;;15.41;59.55
8039;BME280;4062;49.844;8.120;2023-05-14T02:18:28;99389.34;;;15.41;59.62
8039;BME280;4062;49.844;8.120;2023-05-14T02:20:37;99387.53;;;15.41;59.57
8039;BME280;4062;49.844;8.120;2023-05-14T02:22:40;99383.16;;;15.40;59.50
8039;BME280;4062;49.844;8.120;2023-05-14T02:24:46;99387.53;;;15.41;59.69
8039;BME280;4062;49.844;8.120;2023-05-14T02:26:49;99390.19;;;15.41;59.44
8039;BME280;4062;49.844;8.120;2023-05-14T02:28:55;99388.50;;;15.40;59.58
8039;BME280;4062;49.844;8.120;2023-05-14T02:30:59;99389.34;;;15.41;59.59
8039;BME280;4062;49.844;8.120;2023-05-14T02:33:18;99382.22;;;15.41;59.45
8039;BME280;4062;49.844;8.120;2023-05-14T02:35:19;99385.75;;;15.42;59.53
8039;BME280;4062;49.844;8.120;2023-05-14T02:37:20;99384.88;;;15.41;59.53
8039;BME280;4062;49.844;8.120;2023-05-14T02:39:35;99378.69;;;15.41;59.39
8039;BME280;4062;49.844;8.120;2023-05-14T02:41:43;99382.22;;;15.41;59.44
8039;BME280;4062;49.844;8.120;2023-05-14T02:43:44;99376.88;;;15.41;59.58
8039;BME280;4062;49.844;8.120;2023-05-14T02:45:46;99374.22;;;15.41;59.43
8039;BME280;4062;49.844;8.120;2023-05-14T02:47:53;99379.53;;;15.41;59.43
8039;BME280;4062;49.844;8.120;2023-05-14T02:49:55;99377.78;;;15.42;59.53
8039;BME280;4062;49.844;8.120;2023-05-14T02:51:56;99385.75;;;15.42;59.42
8039;BME280;4062;49.844;8.120;2023-05-14T02:54:07;99377.84;;;15.40;59.53
8039;BME280;4062;49.844;8.120;2023-05-14T02:56:08;99380.50;;;15.40;59.52
8039;BME280;4062;49.844;8.120;2023-05-14T02:58:10;99377.84;;;15.40;59.54
8039;BME280;4062;49.844;8.120;2023-05-14T03:00:16;99379.53;;;15.41;59.43
8039;BME280;4062;49.844;8.120;2023-05-14T03:02:21;99376.88;;;15.41;59.50
8039;BME280;4062;49.844;8.120;2023-05-14T03:04:34;99379.53;;;15.41;59.38
8039;BME280;4062;49.844;8.120;2023-05-14T03:06:38;99381.34;;;15.41;59.42
8039;BME280;4062;49.844;8.120;2023-05-14T03:08:39;99376.03;;;15.41;59.57
8039;BME280;4062;49.844;8.120;2023-05-14T03:10:59;99373.38;;;15.41;59.62
8039;BME280;4062;49.844;8.120;2023-05-14T03:13:01;99374.31;;;15.40;59.47
8039;BME280;4062;49.844;8.120;2023-05-14T03:15:05;99373.38;;;15.41;59.38
8039;BME280;4062;49.844;8.120;2023-05-14T03:17:12;99376.88;;;15.41;59.56
8039;BME280;4062;49.844;8.120;2023-05-14T03:19:17;99373.38;;;15.41;59.45
8039;BME280;4062;49.844;8.120;2023-05-14T03:21:27;99376.03;;;15.41;59.50
8039;BME280;4062;49.844;8.120;2023-05-14T03:23:35;99370.72;;;15.41;59.45
8039;BME280;4062;49.844;8.120;2023-05-14T03:26:19;99370.72;;;15.41;59.56
8039;BME280;4062;49.844;8.120;2023-05-14T03:28:30;99369.84;;;15.40;59.51
8039;BME280;4062;49.844;8.120;2023-05-14T03:30:35;99373.38;;;15.41;59.57
8039;BME280;4062;49.844;8.120;2023-05-14T03:32:43;99363.56;;;15.41;59.56
8039;BME280;4062;49.844;8.120;2023-05-14T03:34:45;99368.03;;;15.41;59.38
8039;BME280;4062;49.844;8.120;2023-05-14T03:37:13;99369.84;;;15.40;59.38
8039;BME280;4062;49.844;8.120;2023-05-14T03:39:27;99372.53;;;15.40;59.54
8039;BME280;4062;49.844;8.120;2023-05-14T03:41:32;99373.38;;;15.41;59.56
8039;BME280;4062;49.844;8.120;2023-05-14T03:43:40;99368.03;;;15.41;59.47
8039;BME280;4062;49.844;8.120;2023-05-14T03:48:37;99365.38;;;15.41;59.51
8039;BME280;4062;49.844;8.120;2023-05-14T03:51:35;99374.22;;;15.41;59.47
8039;BME280;4062;49.844;8.120;2023-05-14T03:53:50;99370.72;;;15.41;59.51
8039;BME280;4062;49.844;8.120;2023-05-14T03:56:00;99371.63;;;15.40;59.53
8039;BME280;4062;49.844;8.120;2023-05-14T03:58:02;99372.53;;;15.40;59.52
8039;BME280;4062;49.844;8.120;2023-05-14T04:00:10;99373.38;;;15.41;59.53
8039;BME280;4062;49.844;8.120;2023-05-14T04:02:20;99368.03;;;15.41;59.56
8039;BME280;4062;49.844;8.120;2023-05-14T04:04:25;99365.38;;;15.41;59.50
8039;BME280;4062;49.844;8.120;2023-05-14T04:06:32;99370.72;;;15.41;59.37
8039;BME280;4062;49.844;8.120;2023-05-14T04:08:36;99374.22;;;15.41;59.58
8039;BME280;4062;49.844;8.120;2023-05-14T04:10:37;99364.53;;;15.40;59.50
8039;BME280;4062;49.844;8.120;2023-05-14T04:12:44;99366.31;;;15.40;59.50
8039;BME280;4062;49.844;8.120;2023-05-14T04:14:52;99370.72;;;15.41;59.52
8039;BME280;4062;49.844;8.120;2023-05-14T04:16:53;99367.19;;;15.40;59.50
8039;BME280;4062;49.844;8.120;2023-05-14T04:19:01;99371.63;;;15.40;59.59
8039;BME280;4062;49.844;8.120;2023-05-14T04:21:04;99371.56;;;15.41;59.44
8039;BME280;4062;49.844;8.120;2023-05-14T04:23:18;99367.19;;;15.40;59.45
8039;BME280;4062;49.844;8.120;2023-05-14T04:25:22;99365.38;;;15.41;59.42
8039;BME280;4062;49.844;8.120;2023-05-14T04:27:24;99369.84;;;15.40;59.40
8039;BME280;4062;49.844;8.120;2023-05-14T04:29:31;99374.31;;;15.40;59.53
8039;BME280;4062;49.844;8.120;2023-05-14T04:31:32;99378.69;;;15.41;59.44
8039;BME280;4062;49.844;8.120;2023-05-14T04:33:36;99376.03;;;15.41;59.46
8039;BME280;4062;49.844;8.120;2023-05-14T04:35:41;99378.69;;;15.41;59.51
8039;BME280;4062;49.844;8.120;2023-05-14T04:37:42;99374.22;;;15.41;59.47
8039;BME280;4062;49.844;8.120;2023-05-14T04:39:43;99381.34;;;15.41;59.59
8039;BME280;4062;49.844;8.120;2023-05-14T04:41:48;99378.69;;;15.41;59.50
8039;BME280;4062;49.844;8.120;2023-05-14T04:44:00;99377.84;;;15.40;59.60
8039;BME280;4062;49.844;8.120;2023-05-14T04:46:02;99392.84;;;15.41;59.53
8039;BME280;4062;49.844;8.120;2023-05-14T04:48:05;99384.88;;;15.41;59.58
8039;BME280;4062;49.844;8.120;2023-05-14T04:50:14;99378.69;;;15.41;59.43
8039;BME280;4062;49.844;8.120;2023-05-14T04:52:15;99376.88;;;15.41;59.57
8039;BME280;4062;49.844;8.120;2023-05-14T04:54:17;99382.22;;;15.41;59.56
8039;BME280;4062;49.844;8.120;2023-05-14T04:56:24;99382.22;;;15.41;59.44
8039;BME280;4062;49.844;8.120;2023-05-14T04:58:26;99382.22;;;15.41;59.45
8039;BME280;4062;49.844;8.120;2023-05-14T05:00:29;99380.44;;;15.42;59.35
8039;BME280;4062;49.844;8.120;2023-05-14T05:02:30;99387.53;;;15.41;59.39
8039;BME280;4062;49.844;8.120;2023-05-14T05:04:32;99386.69;;;15.41;59.46
8039;BME280;4062;49.844;8.120;2023-05-14T05:06:41;99388.41;;;15.42;59.52
8039;BME280;4062;49.844;8.120;2023-05-14T05:08:43;99377.84;;;15.40;59.54
8039;BME280;4062;49.844;8.120;2023-05-14T05:10:47;99379.53;;;15.41;59.36
8039;BME280;4062;49.844;8.120;2023-05-14T05:12:49;99386.69;;;15.41;59.26
8039;BME280;4062;49.844;8.120;2023-05-14T05:14:52;99385.84;;;15.40;59.54
8039;BME280;4062;49.844;8.120;2023-05-14T05:16:54;99382.22;;;15.41;59.43
8039;BME280;4062;49.844;8.120;2023-05-14T05:18:58;99380.44;;;15.42;59.49
8039;BME280;4062;49.844;8.120;2023-05-14T05:21:08;99387.53;;;15.41;59.50
8039;BME280;4062;49.844;8.120;2023-05-14T05:23:09;99387.53;;;15.41;59.38
8039;BME280;4062;49.844;8.120;2023-05-14T05:25:36;99391.09;;;15.42;59.47
8039;BME280;4062;49.844;8.120;2023-05-14T05:27:40;99388.41;;;15.42;59.46
8039;BME280;4062;49.844;8.120;2023-05-14T05:29:42;99395.53;;;15.41;59.59
8039;BME280;4062;49.844;8.120;2023-05-14T05:31:44;99392.00;;;15.41;59.51
8039;BME280;4062;49.844;8.120;2023-05-14T05:33:45;99390.19;;;15.41;59.50
8039;BME280;4062;49.844;8.120;2023-05-14T05:35:47;99386.69;;;15.41;59.43
8039;BME280;4062;49.844;8.120;2023-05-14T05:37:48;99385.84;;;15.40;59.34
8039;BME280;4062;49.844;8.120;2023-05-14T05:39:50;99392.84;;;15.41;59.47
8039;BME280;4062;49.844;8.120;2023-05-14T05:42:01;99387.53;;;15.41;59.56
8039;BME280;4062;49.844;8.120;2023-05-14T05:44:11;99389.25;;;15.42;59.55
8039;BME280;4062;49.844;8.120;2023-05-14T05:46:12;99396.41;;;15.42;59.49
8039;BME280;4062;49.844;8.120;2023-05-14T05:48:16;99391.09;;;15.42;59.46
8039;BME280;4062;49.844;8.120;2023-05-14T05:50:18;99395.47;;;15.43;59.54
8039;BME280;4062;49.844;8.120;2023-05-14T05:52:19;99395.53;;;15.41;59.40
8039;BME280;4062;49.844;8.120;2023-05-14T05:54:21;99397.25;;;15.42;59.58
8039;BME280;4062;49.844;8.120;2023-05-14T05:56:25;99396.41;;;15.42;59.44
8039;BME280;4062;49.844;8.120;2023-05-14T05:58:28;99391.09;;;15.42;59.39
8039;BME280;4062;49.844;8.120;2023-05-14T06:00:29;99390.19;;;15.41;59.43
8039;BME280;4062;49.844;8.120;2023-05-14T06:02:31;99391.09;;;15.42;59.69
8039;BME280;4062;49.844;8.120;2023-05-14T06:04:32;99388.41;;;15.42;59.35
8039;BME280;4062;49.844;8.120;2023-05-14T06:06:33;99386.59;;;15.42;59.49
8039;BME280;4062;49.844;8.120;2023-05-14T06:08:35;99385.75;;;15.42;59.40
8039;BME280;4062;49.844;8.120;2023-05-14T06:10:36;99388.41;;;15.42;59.46
8039;BME280;4062;49.844;8.120;2023-05-14T06:12:38;99391.94;;;15.42;59.43
8039;BME280;4062;49.844;8.120;2023-05-14T06:14:39;99393.75;;;15.42;59.55
8039;BME280;4062;49.844;8.120;2023-05-14T06:16:40;99391.09;;;15.42;59.52
8039;BME280;4062;49.844;8.120;2023-05-14T06:18:41;99386.69;;;15.41;59.49
8039;BME280;4062;49.844;8.120;2023-05-14T06:20:43;99390.19;;;15.41;59.56
8039;BME280;4062;49.844;8.120;2023-05-14T06:22:48;99396.41;;;15.42;59.40
8039;BME280;4062;49.844;8.120;2023-05-14T06:24:49;99391.94;;;15.42;59.56
8039;BME280;4062;49.844;8.120;2023-05-14T06:26:53;99393.75;;;15.42;59.39
8039;BME280;4062;49.844;8.120;2023-05-14T06:28:54;99387.50;;;15.43;59.47
8039;BME280;4062;49.844;8.120;2023-05-14T06:30:56;99394.59;;;15.42;59.55
8039;BME280;4062;49.844;8.120;2023-05-14T06:32:57;99391.94;;;15.42;59.48
8039;BME280;4062;49.844;8.120;2023-05-14T06:34:58;99399.91;;;15.42;59.55
8039;BME280;4062;49.844;8.120;2023-05-14T06:37:03;99391.94;;;15.42;59.45
8039;BME280;4062;49.844;8.120;2023-05-14T06:39:04;99390.16;;;15.43;59.41
8039;BME280;4062;49.844;8.120;2023-05-14T06:41:06;99398.97;;;15.43;59.56
8039;BME280;4062;49.844;8.120;2023-05-14T06:43:07;99399.91;;;15.42;59.56
8039;BME280;4062;49.844;8.120;2023-05-14T06:45:09;99404.31;;;15.43;59.41
8039;BME280;4062;49.844;8.120;2023-05-14T06:47:15;99396.31;;;15.43;59.59
8039;BME280;4062;49.844;8.120;2023-05-14T06:49:17;99399.88;;;15.44;59.54
8039;BME280;4062;49.844;8.120;2023-05-14T06:51:36;99394.53;;;15.44;59.57
8039;BME280;4062;49.844;8.120;2023-05-14T06:53:53;99402.53;;;15.44;59.54
8039;BME280;4062;49.844;8.120;2023-05-14T06:56:06;99397.13;;;15.45;59.50
8039;BME280;4062;49.844;8.120;2023-05-14T06:58:16;99397.13;;;15.45;59.35
8039;BME280;4062;49.844;8.120;2023-05-14T07:00:25;99397.97;;;15.46;59.47
8039;BME280;4062;49.844;8.120;2023-05-14T07:02:30;99393.63;;;15.45;59.48
8039;BME280;4062;49.844;8.120;2023-05-14T07:04:40;99397.97;;;15.46;59.53
8039;BME280;4062;49.844;8.120;2023-05-14T07:07:12;99396.28;;;15.45;59.48
8039;BME280;4062;49.844;8.120;2023-05-14T07:09:32;99390.00;;;15.46;59.46
8039;BME280;4062;49.844;8.120;2023-05-14T07:11:34;99390.00;;;15.46;59.32
8039;BME280;4062;49.844;8.120;2023-05-14T07:13:41;99397.13;;;15.45;59.32
8039;BME280;4062;49.844;8.120;2023-05-14T07:15:45;99395.31;;;15.46;59.33
8039;BME280;4062;49.844;8.120;2023-05-14T07:17:47;99396.28;;;15.45;59.37
8039;BME280;4062;49.844;8.120;2023-05-14T07:19:48;99393.53;;;15.46;59.46
8039;BME280;4062;49.844;8.120;2023-05-14T07:21:51;99390.88;;;15.46;59.40
8039;BME280;4062;49.844;8.120;2023-05-14T07:23:57;99386.41;;;15.47;59.44
8039;BME280;4062;49.844;8.120;2023-05-14T07:25:59;99389.06;;;15.47;59.46
8039;BME280;4062;49.844;8.120;2023-05-14T07:28:00;99381.06;;;15.47;59.28
8039;BME280;4062;49.844;8.120;2023-05-14T07:30:02;99381.06;;;15.47;59.35
8039;BME280;4062;49.844;8.120;2023-05-14T07:32:03;99380.22;;;15.46;59.28
8039;BME280;4062;49.844;8.120;2023-05-14T07:34:05;99379.34;;;15.46;59.30
8039;BME280;4062;49.844;8.120;2023-05-14T07:36:07;99374.91;;;15.46;59.41
8039;BME280;4062;49.844;8.120;2023-05-14T07:38:09;99375.75;;;15.47;59.40
8039;BME280;4062;49.844;8.120;2023-05-14T07:40:10;99381.03;;;15.48;59.34
8039;BME280;4062;49.844;8.120;2023-05-14T07:42:14;99381.03;;;15.48;59.46
8039;BME280;4062;49.844;8.120;2023-05-14T07:44:15;99375.75;;;15.47;59.47
8039;BME280;4062;49.844;8.120;2023-05-14T07:46:20;99377.47;;;15.48;59.37
8039;BME280;4062;49.844;8.120;2023-05-14T07:48:21;99374.81;;;15.48;59.33
8039;BME280;4062;49.844;8.120;2023-05-14T07:50:22;99375.53;;;15.52;59.21
8039;BME280;4062;49.844;8.120;2023-05-14T07:52:24;99371.03;;;15.54;59.16
8039;BME280;4062;49.844;8.120;2023-05-14T07:54:25;99362.03;;;15.56;59.26
8039;BME280;4062;49.844;8.120;2023-05-14T07:56:26;99375.28;;;15.58;59.23
8039;BME280;4062;49.844;8.120;2023-05-14T07:58:28;99365.41;;;15.60;58.99
8039;BME280;4062;49.844;8.120;2023-05-14T08:00:30;99368.94;;;15.60;59.14
8039;BME280;4062;49.844;8.120;2023-05-14T08:02:31;99361.75;;;15.62;59.00
8039;BME280;4062;49.844;8.120;2023-05-14T08:04:32;99360.88;;;15.62;59.01
8039;BME280;4062;49.844;8.120;2023-05-14T08:06:36;99361.75;;;15.62;58.83
8039;BME280;4062;49.844;8.120;2023-05-14T08:08:38;99365.28;;;15.63;58.94
8039;BME280;4062;49.844;8.120;2023-05-14T08:10:39;99356.44;;;15.62;58.94
8039;BME280;4062;49.844;8.120;2023-05-14T08:12:40;99364.44;;;15.62;59.10
8039;BME280;4062;49.844;8.120;2023-05-14T08:14:42;99366.16;;;15.63;58.88
8039;BME280;4062;49.844;8.120;2023-05-14T08:16:44;99360.84;;;15.63;58.99
8039;BME280;4062;49.844;8.120;2023-05-14T08:18:45;99358.16;;;15.63;59.06
8039;BME280;4062;49.844;8.120;2023-05-14T08:20:47;99364.34;;;15.64;59.08
8039;BME280;4062;49.844;8.120;2023-05-14T08:22:48;99353.78;;;15.62;59.09
8039;BME280;4062;49.844;8.120;2023-05-14T08:24:55;99358.22;;;15.62;59.03
8039;BME280;4062;49.844;8.120;2023-05-14T08:26:57;99352.97;;;15.60;59.12
8039;BME280;4062;49.844;8.120;2023-05-14T08:28:58;99349.38;;;15.61;59.03
8039;BME280;4062;49.844;8.120;2023-05-14T08:30:59;99345.84;;;15.61;59.09
8039;BME280;4062;49.844;8.120;2023-05-14T08:33:01;99344.91;;;15.62;59.02
8039;BME280;4062;49.844;8.120;2023-05-14T08:35:02;99338.72;;;15.61;59.11
8039;BME280;4062;49.844;8.120;2023-05-14T08:37:04;99344.06;;;15.61;58.95
8039;BME280;4062;49.844;8.120;2023-05-14T08:39:05;99336.06;;;15.61;59.01
8039;BME280;4062;49.844;8.120;2023-05-14T08:41:10;99341.31;;;15.63;58.99
8039;BME280;4062;49.844;8.120;2023-05-14T08:43:13;99329.81;;;15.62;58.99
8039;BME280;4062;49.844;8.120;2023-05-14T08:45:19;99328.94;;;15.62;59.03
8039;BME280;4062;49.844;8.120;2023-05-14T08:47:21;99333.31;;;15.63;59.16
8039;BME280;4062;49.844;8.120;2023-05-14T08:49:42;99317.41;;;15.61;59.04
8039;BME280;4062;49.844;8.120;2023-05-14T08:51:45;99321.88;;;15.61;59.09
8039;BME280;4062;49.844;8.120;2023-05-14T08:53:48;99323.69;;;15.60;59.10
8039;BME280;4062;49.844;8.120;2023-05-14T08:55:50;99315.69;;;15.60;59.15
8039;BME280;4062;49.844;8.120;2023-05-14T08:57:53;99320.13;;;15.60;59.18
8039;BME280;4062;49.844;8.120;2023-05-14T08:59:54;99322.78;;;15.60;59.08
8039;BME280;4062;49.844;8.120;2023-05-14T09:01:57;99321.00;;;15.60;59.23
8039;BME280;4062;49.844;8.120;2023-05-14T09:04:01;99315.69;;;15.60;59.22
8039;BME280;4062;49.844;8.120;2023-05-14T09:06:07;99319.28;;;15.59;59.24
8039;BME280;4062;49.844;8.120;2023-05-14T09:08:09;99314.81;;;15.60;59.32
8039;BME280;4062;49.844;8.120;2023-05-14T09:10:10;99310.38;;;15.60;59.11
8039;BME280;4062;49.844;8.120;2023-05-14T09:12:12;99309.47;;;15.60;59.26
8039;BME280;4062;49.844;8.120;2023-05-14T09:14:13;99305.88;;;15.61;59.04
8039;BME280;4062;49.844;8.120;2023-05-14T09:16:15;99311.22;;;15.61;59.13
8039;BME280;4062;49.844;8.120;2023-05-14T09:18:18;99309.47;;;15.60;59.28
8039;BME280;4062;49.844;8.120;2023-05-14T09:20:19;99305.03;;;15.60;59.14
8039;BME280;4062;49.844;8.120;2023-05-14T09:22:21;99304.16;;;15.60;59.29
8039;BME280;4062;49.844;8.120;2023-05-14T09:24:24;99301.50;;;15.60;58.92
8039;BME280;4062;49.844;8.120;2023-05-14T09:26:26;99298.78;;;15.61;59.14
8039;BME280;4062;49.844;8.120;2023-05-14T09:28:31;99298.69;;;15.63;59.06
8039;BME280;4062;49.844;8.120;2023-05-14T09:30:32;99306.69;;;15.63;59.16
8039;BME280;4062;49.844;8.120;2023-05-14T09:32:36;99305.75;;;15.64;59.07
8039;BME280;4062;49.844;8.120;2023-05-14T09:34:38;99300.44;;;15.64;59.09
8039;BME280;4062;49.844;8.120;2023-05-14T09:36:39;99294.25;;;15.63;59.06
8039;BME280;4062;49.844;8.120;2023-05-14T09:38:41;99291.59;;;15.63;59.26
8039;BME280;4062;49.844;8.120;2023-05-14T09:40:42;99296.03;;;15.63;59.27
8039;BME280;4062;49.844;8.120;2023-05-14T09:42:44;99301.28;;;15.64;59.06
8039;BME280;4062;49.844;8.120;2023-05-14T09:44:45;99296.97;;;15.62;59.14
8039;BME280;4062;49.844;8.120;2023-05-14T09:46:47;99297.91;;;15.61;59.25
8039;BME280;4062;49.844;8.120;2023-05-14T09:48:48;99290.78;;;15.61;59.13
8039;BME280;4062;49.844;8.120;2023-05-14T09:50:50;99294.38;;;15.60;59.14
8039;BME280;4062;49.844;8.120;2023-05-14T09:52:54;99300.56;;;15.61;59.31
8039;BME280;4062;49.844;8.120;2023-05-14T09:54:56;99303.22;;;15.61;59.15
8039;BME280;4062;49.844;8.120;2023-05-14T09:56:57;99301.50;;;15.60;59.22
8039;BME280;4062;49.844;8.120;2023-05-14T09:58:59;99296.16;;;15.60;59.31
8039;BME280;4062;49.844;8.120;2023-05-14T10:01:00;99298.78;;;15.61;59.20
8039;BME280;4062;49.844;8.120;2023-05-14T10:03:06;99302.38;;;15.60;59.31
8039;BME280;4062;49.844;8.120;2023-05-14T10:05:08;99295.25;;;15.61;59.35
8039;BME280;4062;49.844;8.120;2023-05-14T10:07:10;99295.25;;;15.61;59.23
8039;BME280;4062;49.844;8.120;2023-05-14T10:09:12;99291.63;;;15.62;59.13
8039;BME280;4062;49.844;8.120;2023-05-14T10:11:19;99297.84;;;15.62;59.21
8039;BME280;4062;49.844;8.120;2023-05-14T10:13:30;99296.13;;;15.61;59.25
8039;BME280;4062;49.844;8.120;2023-05-14T10:15:46;99294.38;;;15.60;59.34
8039;BME280;4062;49.844;8.120;2023-05-14T10:17:51;99295.25;;;15.61;59.29
8039;BME280;4062;49.844;8.120;2023-05-14T10:19:57;99299.72;;;15.60;59.27
8039;BME280;4062;49.844;8.120;2023-05-14T10:22:04;99291.72;;;15.60;59.35
8039;BME280;4062;49.844;8.120;2023-05-14T10:24:07;99295.25;;;15.61;59.28
8039;BME280;4062;49.844;8.120;2023-05-14T10:26:10;99289.91;;;15.61;59.22
8039;BME280;4062;49.844;8.120;2023-05-14T10:28:12;99291.72;;;15.60;59.23
8039;BME280;4062;49.844;8.120;2023-05-14T10:30:13;99291.72;;;15.60;59.32
8039;BME280;4062;49.844;8.120;2023-05-14T10:32:14;99290.84;;;15.60;59.23
8039;BME280;4062;49.844;8.120;2023-05-14T10:34:40;99289.06;;;15.60;59.24
8039;BME280;4062;49.844;8.120;2023-05-14T10:36:42;99277.53;;;15.60;59.17
8039;BME280;4062;49.844;8.120;2023-05-14T10:38:43;99288.19;;;15.60;59.25
8039;BME280;4062;49.844;8.120;2023-05-14T10:40:47;99284.66;;;15.59;59.24
8039;BME280;4062;49.844;8.120;2023-05-14T10:42:48;99284.66;;;15.59;59.30
8039;BME280;4062;49.844;8.120;2023-05-14T10:45:01;99282.84;;;15.60;59.21
8039;BME280;4062;49.844;8.120;2023-05-14T10:47:03;99281.06;;;15.60;59.27
8039;BME280;4062;49.844;8.120;2023-05-14T10:49:04;99277.53;;;15.60;59.15
8039;BME280;4062;49.844;8.120;2023-05-14T10:51:07;99282.84;;;15.60;59.35
8039;BME280;4062;49.844;8.120;2023-05-14T10:53:11;99277.53;;;15.60;59.12
8039;BME280;4062;49.844;8.120;2023-05-14T10:55:14;99275.75;;;15.60;59.29
8039;BME280;4062;49.844;8.120;2023-05-14T10:57:18;99266.88;;;15.60;59.32
8039;BME280;4062;49.844;8.120;2023-05-14T10:59:25;99270.50;;;15.59;59.32
8039;BME280;4062;49.844;8.120;2023-05-14T11:01:35;99265.19;;;15.59;59.20
8039;BME280;4062;49.844;8.120;2023-05-14T11:04:39;99259.84;;;15.59;59.24
8039;BME280;4062;49.844;8.120;2023-05-14T11:06:42;99265.19;;;15.59;59.23
8039;BME280;4062;49.844;8.120;2023-05-14T11:08:44;99263.38;;;15.59;59.33
8039;BME280;4062;49.844;8.120;2023-05-14T11:10:46;99263.38;;;15.59;59.33
8039;BME280;4062;49.844;8.120;2023-05-14T11:12:50;99266.88;;;15.60;59.13
8039;BME280;4062;49.844;8.120;2023-05-14T11:14:59;99262.50;;;15.59;59.20
8039;BME280;4062;49.844;8.120;2023-05-14T11:17:02;99259.84;;;15.59;59.36
8039;BME280;4062;49.844;8.120;2023-05-14T11:19:41;99260.69;;;15.59;59.13
8039;BME280;4062;49.844;8.120;2023-05-14T11:21:51;99252.72;;;15.59;59.39
8039;BME280;4062;49.844;8.120;2023-05-14T11:24:02;99254.53;;;15.59;59.22
8039;BME280;4062;49.844;8.120;2023-05-14T11:26:08;99258.88;;;15.60;59.35
8039;BME280;4062;49.844;8.120;2023-05-14T11:28:14;99252.72;;;15.59;59.38
8039;BME280;4062;49.844;8.120;2023-05-14T11:30:18;99254.53;;;15.59;59.38